createdAt,value
2022-08-29T00:00:17.915Z,95391.00
2022-08-29T00:02:49.622Z,95396.03
2022-08-29T00:05:18.464Z,95380.50
2022-08-29T00:07:46.925Z,95386.47
2022-08-29T00:10:16.480Z,95341.34
2022-08-29T00:12:45.821Z,95380.16
2022-08-29T00:15:15.849Z,95352.91
2022-08-29T00:17:44.579Z,95376.13
2022-08-29T00:20:18.987Z,95377.78
2022-08-29T00:22:48.340Z,95365.88
2022-08-29T00:25:17.175Z,95372.25
2022-08-29T00:27:49.877Z,95317.91
2022-08-29T00:30:19.469Z,95374.19
2022-08-29T00:32:47.784Z,95379.94
2022-08-29T00:35:21.511Z,95372.53
2022-08-29T00:37:51.645Z,95381.53
2022-08-29T00:40:23.765Z,95377.50
2022-08-29T00:42:52.168Z,95388.31
2022-08-29T00:45:21.105Z,95376.41
2022-08-29T00:47:54.061Z,95380.25
2022-08-29T00:50:29.460Z,95380.84
2022-08-29T00:52:59.708Z,95386.44
2022-08-29T00:55:32.376Z,95383.78
2022-08-29T00:58:04.166Z,95388.63
2022-08-29T01:00:32.924Z,95305.66
2022-08-29T01:03:02.988Z,95388.41
2022-08-29T01:05:33.682Z,95384.81
2022-08-29T01:08:02.417Z,95380.31
2022-08-29T01:10:48.395Z,95384.19
2022-08-29T01:13:17.018Z,95355.69
2022-08-29T01:15:47.222Z,95378.13
2022-08-29T01:18:17.277Z,95345.38
2022-08-29T01:20:59.947Z,95378.72
2022-08-29T01:23:35.565Z,95373.88
2022-08-29T01:26:06.589Z,95368.19
2022-08-29T01:28:39.314Z,95376.34
2022-08-29T01:31:10.794Z,95366.25
2022-08-29T01:33:51.424Z,95356.81
2022-08-29T01:36:23.682Z,95359.06
2022-08-29T01:38:52.552Z,95365.94
2022-08-29T01:41:23.129Z,95365.16
2022-08-29T01:43:59.925Z,95331.22
2022-08-29T01:46:34.674Z,95377.75
2022-08-29T01:49:04.350Z,95369.31
2022-08-29T01:51:33.486Z,95359.41
2022-08-29T01:54:02.063Z,95370.13
2022-08-29T01:56:34.116Z,95372.38
2022-08-29T01:59:05.755Z,95370.78
2022-08-29T02:01:36.576Z,95364.72
2022-08-29T02:04:06.134Z,95368.97
2022-08-29T02:06:35.164Z,95355.84
2022-08-29T02:09:04.234Z,95316.16
2022-08-29T02:11:35.469Z,95360.44
2022-08-29T02:14:04.784Z,95361.44
2022-08-29T02:16:34.004Z,95338.06
2022-08-29T02:19:02.542Z,95367.41
2022-08-29T02:21:31.890Z,95361.56
2022-08-29T02:24:21.319Z,95353.91
2022-08-29T02:26:55.405Z,95357.25
2022-08-29T02:29:24.320Z,95361.44
2022-08-29T02:31:53.213Z,95356.59
2022-08-29T02:34:23.329Z,95359.53
2022-08-29T02:36:52.044Z,95280.53
2022-08-29T02:39:20.695Z,95362.81
2022-08-29T02:41:49.053Z,95374.81
2022-08-29T02:44:20.603Z,95337.72
2022-08-29T02:46:50.378Z,95376.38
2022-08-29T02:49:18.893Z,95379.66
2022-08-29T02:51:47.363Z,95384.38
2022-08-29T02:54:16.075Z,95351.09
2022-08-29T02:56:44.478Z,95389.66
2022-08-29T02:59:14.321Z,95386.94
2022-08-29T03:01:44.169Z,95392.91
2022-08-29T03:04:12.564Z,95396.72
2022-08-29T03:06:40.923Z,95392.72
2022-08-29T03:09:09.297Z,95386.69
2022-08-29T03:11:37.844Z,95386.38
2022-08-29T03:14:06.281Z,95393.00
2022-08-29T03:16:35.026Z,95390.19
2022-08-29T03:19:04.910Z,95385.44
2022-08-29T03:21:33.537Z,95393.66
2022-08-29T03:24:02.040Z,95387.63
2022-08-29T03:26:30.733Z,95392.13
2022-08-29T03:28:59.106Z,95398.97
2022-08-29T03:31:27.566Z,95401.69
2022-08-29T03:33:56.852Z,95401.28
2022-08-29T03:36:28.012Z,95399.75
2022-08-29T03:38:56.705Z,95402.94
2022-08-29T03:41:27.465Z,95401.88
2022-08-29T03:43:58.008Z,95406.69
2022-08-29T03:46:26.507Z,95404.38
2022-08-29T03:48:54.967Z,95321.00
2022-08-29T03:51:26.248Z,95412.59
2022-08-29T03:53:59.500Z,95413.44
2022-08-29T03:56:29.005Z,95414.19
2022-08-29T03:58:58.596Z,95415.91
2022-08-29T04:01:29.577Z,95413.78
2022-08-29T04:03:59.140Z,95417.59
2022-08-29T04:06:29.508Z,95416.69
2022-08-29T04:08:59.301Z,95412.13
2022-08-29T04:11:29.012Z,95365.69
2022-08-29T04:13:57.549Z,95420.69
2022-08-29T04:16:30.892Z,95426.16
2022-08-29T04:19:00.082Z,95425.44
2022-08-29T04:21:28.710Z,95423.97
2022-08-29T04:23:58.440Z,95422.28
2022-08-29T04:26:41.999Z,95439.69
2022-08-29T04:29:12.668Z,95434.16
2022-08-29T04:31:42.463Z,95439.94
2022-08-29T04:34:13.048Z,95447.38
2022-08-29T04:36:45.479Z,95450.25
2022-08-29T04:39:15.854Z,95398.16
2022-08-29T04:41:44.541Z,95452.41
2022-08-29T04:44:14.097Z,95447.75
2022-08-29T04:46:42.896Z,95450.09
2022-08-29T04:49:11.420Z,95445.28
2022-08-29T04:51:40.804Z,95376.25
2022-08-29T04:54:09.298Z,95425.59
2022-08-29T04:56:43.658Z,95416.84
2022-08-29T04:59:16.658Z,95454.97
2022-08-29T05:01:45.049Z,95447.97
2022-08-29T05:04:14.600Z,95432.00
2022-08-29T05:06:43.730Z,95402.47
2022-08-29T05:09:12.420Z,95395.03
2022-08-29T05:11:42.922Z,95433.16
2022-08-29T05:14:12.208Z,95451.38
2022-08-29T05:16:40.973Z,95453.09
2022-08-29T05:19:16.112Z,95430.16
2022-08-29T05:21:45.081Z,95454.31
2022-08-29T05:24:14.986Z,95458.63
2022-08-29T05:26:46.749Z,95454.97
2022-08-29T05:29:15.331Z,95421.34
2022-08-29T05:31:44.504Z,95381.78
2022-08-29T05:34:34.791Z,95440.25
2022-08-29T05:37:03.128Z,95445.34
2022-08-29T05:39:31.544Z,95436.97
2022-08-29T05:42:01.552Z,95447.69
2022-08-29T05:44:35.256Z,95457.44
2022-08-29T05:47:04.697Z,95429.50
2022-08-29T05:49:33.472Z,95449.09
2022-08-29T05:52:01.908Z,95450.84
2022-08-29T05:54:34.617Z,95448.41
2022-08-29T05:57:04.666Z,95442.84
2022-08-29T05:59:33.062Z,95436.28
2022-08-29T06:02:01.668Z,95441.69
2022-08-29T06:04:30.195Z,95441.31
2022-08-29T06:06:58.569Z,95447.50
2022-08-29T06:09:27.196Z,95420.34
2022-08-29T06:11:57.832Z,95411.66
2022-08-29T06:14:28.314Z,95430.91
2022-08-29T06:16:57.392Z,95438.16
2022-08-29T06:19:26.502Z,95430.81
2022-08-29T06:21:56.716Z,95440.31
2022-08-29T06:24:25.081Z,95444.72
2022-08-29T06:26:53.449Z,95450.06
2022-08-29T06:29:21.848Z,95445.44
2022-08-29T06:31:51.783Z,95436.66
2022-08-29T06:34:20.379Z,95433.66
2022-08-29T06:36:48.791Z,95440.16
2022-08-29T06:39:17.545Z,95436.66
2022-08-29T06:41:45.972Z,95432.56
2022-08-29T06:44:14.309Z,95420.09
2022-08-29T06:46:44.982Z,95427.34
2022-08-29T06:49:16.433Z,95430.06
2022-08-29T06:51:49.237Z,95428.03
2022-08-29T06:54:20.085Z,95409.06
2022-08-29T06:56:48.705Z,95431.91
2022-08-29T06:59:17.940Z,95438.22
2022-08-29T07:01:47.241Z,95440.03
2022-08-29T07:04:20.682Z,95410.78
2022-08-29T07:06:50.151Z,95433.84
2022-08-29T07:09:18.850Z,95440.56
2022-08-29T07:11:47.162Z,95438.22
2022-08-29T07:14:15.655Z,95435.53
2022-08-29T07:16:44.439Z,95437.50
2022-08-29T07:19:12.941Z,95432.94
2022-08-29T07:21:45.460Z,95435.13
2022-08-29T07:24:13.929Z,95434.59
2022-08-29T07:26:44.384Z,95434.13
2022-08-29T07:29:14.904Z,95427.47
2022-08-29T07:31:43.734Z,95425.00
2022-08-29T07:34:12.583Z,95432.44
2022-08-29T07:36:41.339Z,95437.03
2022-08-29T07:39:13.311Z,95428.44
2022-08-29T07:41:42.971Z,95432.44
2022-08-29T07:44:12.039Z,95434.03
2022-08-29T07:46:41.112Z,95436.84
2022-08-29T07:49:09.827Z,95421.59
2022-08-29T07:51:38.265Z,95421.44
2022-08-29T07:54:16.866Z,95421.44
2022-08-29T07:56:46.346Z,95416.69
2022-08-29T07:59:14.733Z,95417.25
2022-08-29T08:01:43.431Z,95417.56
2022-08-29T08:04:12.596Z,95405.13
2022-08-29T08:06:43.328Z,95409.03
2022-08-29T08:09:15.455Z,95421.09
2022-08-29T08:11:44.500Z,95418.75
2022-08-29T08:14:13.966Z,95414.91
2022-08-29T08:16:44.350Z,95408.03
2022-08-29T08:19:13.549Z,95355.16
2022-08-29T08:21:49.197Z,95410.09
2022-08-29T08:24:20.152Z,95401.03
2022-08-29T08:26:49.064Z,95403.50
2022-08-29T08:29:18.177Z,95401.03
2022-08-29T08:31:47.290Z,95400.09
2022-08-29T08:34:15.811Z,95391.34
2022-08-29T08:36:45.550Z,95401.75
2022-08-29T08:39:15.675Z,95396.59
2022-08-29T08:41:56.063Z,95392.03
2022-08-29T08:44:51.589Z,95389.81
2022-08-29T08:47:25.777Z,95386.03
2022-08-29T08:49:59.570Z,95383.44
2022-08-29T08:52:35.561Z,95392.38
2022-08-29T08:55:10.866Z,95393.53
2022-08-29T08:57:45.466Z,95377.16
2022-08-29T09:00:14.374Z,95370.03
2022-08-29T09:02:56.525Z,95383.56
2022-08-29T09:05:47.311Z,95365.25
2022-08-29T09:08:25.700Z,95366.38
2022-08-29T09:11:01.499Z,95362.13
2022-08-29T09:13:43.855Z,95358.31
2022-08-29T09:16:25.119Z,95357.38
2022-08-29T09:19:04.904Z,95354.22
2022-08-29T09:21:41.519Z,95350.53
2022-08-29T09:24:17.040Z,95349.91
2022-08-29T09:26:45.544Z,95349.81
2022-08-29T09:29:17.431Z,95339.31
2022-08-29T09:31:45.878Z,95317.84
2022-08-29T09:34:56.930Z,95309.31
2022-08-29T09:37:29.660Z,95328.97
2022-08-29T09:40:06.642Z,95269.41
2022-08-29T09:42:39.263Z,95323.50
2022-08-29T09:45:19.371Z,95309.50
2022-08-29T09:47:47.949Z,95330.31
2022-08-29T09:50:24.830Z,95326.59
2022-08-29T09:52:55.382Z,95320.47
2022-08-29T09:55:31.000Z,95320.53
2022-08-29T09:58:02.453Z,95317.19
2022-08-29T10:00:35.794Z,95304.84
2022-08-29T10:03:06.348Z,95305.66
2022-08-29T10:05:44.541Z,95298.94
2022-08-29T10:08:29.545Z,95262.59
2022-08-29T10:11:02.941Z,95298.84
2022-08-29T10:13:39.917Z,95298.97
2022-08-29T10:16:18.879Z,95295.03
2022-08-29T10:18:51.756Z,95295.75
2022-08-29T10:21:37.414Z,95300.84
2022-08-29T10:24:29.717Z,95289.72
2022-08-29T10:27:05.010Z,95279.06
2022-08-29T10:29:54.035Z,95286.19
2022-08-29T10:32:37.279Z,95285.97
2022-08-29T10:35:15.923Z,95265.31
2022-08-29T10:37:53.908Z,95270.41
2022-08-29T10:40:28.913Z,95262.78
2022-08-29T10:43:14.393Z,95244.44
2022-08-29T10:46:04.950Z,95256.19
2022-08-29T10:48:44.180Z,95252.81
2022-08-29T10:51:22.857Z,95253.91
2022-08-29T10:53:56.527Z,95257.56
2022-08-29T10:56:31.747Z,95244.47
2022-08-29T10:59:08.939Z,95245.81
2022-08-29T11:01:41.708Z,95243.13
2022-08-29T11:04:18.935Z,95232.13
2022-08-29T11:06:54.349Z,95230.75
2022-08-29T11:09:26.972Z,95235.84
2022-08-29T11:12:07.240Z,95223.13
2022-08-29T11:14:40.190Z,95234.41
2022-08-29T11:17:13.856Z,95228.44
2022-08-29T11:19:55.564Z,95226.97
2022-08-29T11:22:27.523Z,95222.00
2022-08-29T11:25:02.906Z,95216.72
2022-08-29T11:27:42.332Z,95214.59
2022-08-29T11:30:17.676Z,95218.25
2022-08-29T11:32:55.572Z,95218.13
2022-08-29T11:35:29.277Z,95210.53
2022-08-29T11:38:26.849Z,95207.34
2022-08-29T11:41:30.362Z,95202.50
2022-08-29T11:44:09.885Z,95174.94
2022-08-29T11:46:42.467Z,95195.09
2022-08-29T11:49:34.061Z,95196.06
2022-08-29T11:52:26.529Z,95204.94
2022-08-29T11:55:16.161Z,95201.09
2022-08-29T11:57:52.035Z,95200.34
2022-08-29T12:00:39.577Z,95195.28
2022-08-29T12:03:57.377Z,95201.06
2022-08-29T12:07:01.606Z,95199.03
2022-08-29T12:09:44.531Z,95197.25
2022-08-29T12:12:20.876Z,95194.50
2022-08-29T12:14:53.224Z,95186.34
2022-08-29T12:18:01.475Z,95188.25
2022-08-29T12:20:42.014Z,95143.59
2022-08-29T12:23:22.854Z,95160.66
2022-08-29T12:26:15.878Z,95173.41
2022-08-29T12:28:50.076Z,95178.91
2022-08-29T12:32:02.364Z,95182.81
2022-08-29T12:34:50.488Z,95182.28
2022-08-29T12:37:45.973Z,95173.72
2022-08-29T12:40:38.858Z,95177.41
2022-08-29T12:43:29.908Z,95187.88
2022-08-29T12:45:58.969Z,95187.47
2022-08-29T12:48:30.004Z,95181.13
2022-08-29T12:50:58.467Z,95184.63
2022-08-29T12:53:30.308Z,95186.34
2022-08-29T12:56:01.412Z,95205.41
2022-08-29T12:58:39.825Z,95141.84
2022-08-29T13:01:21.407Z,95217.22
2022-08-29T13:03:57.739Z,95221.38
2022-08-29T13:06:26.144Z,95225.16
2022-08-29T13:08:54.543Z,95238.63
2022-08-29T13:11:24.701Z,95248.06
2022-08-29T13:14:06.032Z,95266.44
2022-08-29T13:16:34.871Z,95275.13
2022-08-29T13:19:11.556Z,95281.78
2022-08-29T13:21:40.231Z,95279.44
2022-08-29T13:24:14.441Z,95244.34
2022-08-29T13:27:04.254Z,95275.19
2022-08-29T13:29:39.320Z,95286.47
2022-08-29T13:32:18.860Z,95285.28
2022-08-29T13:35:01.887Z,95280.94
2022-08-29T13:37:32.589Z,95234.13
2022-08-29T13:40:31.344Z,95264.53
2022-08-29T13:43:01.678Z,95188.03
2022-08-29T13:45:31.803Z,95247.44
2022-08-29T13:48:19.100Z,95247.47
2022-08-29T13:53:21.304Z,95248.66
2022-08-29T13:55:49.657Z,95250.97
2022-08-29T13:58:21.919Z,95254.13
2022-08-29T14:00:52.167Z,95239.25
2022-08-29T14:03:22.266Z,95250.97
2022-08-29T14:05:51.302Z,95252.16
2022-08-29T14:08:19.649Z,95245.16
2022-08-29T14:10:48.052Z,95232.66
2022-08-29T14:13:16.478Z,95218.97
2022-08-29T14:15:45.060Z,95240.44
2022-08-29T14:18:16.340Z,95243.56
2022-08-29T14:20:44.913Z,95247.84
2022-08-29T14:23:13.333Z,95255.22
2022-08-29T14:25:41.665Z,95260.69
2022-08-29T14:28:10.029Z,95258.41
2022-08-29T14:30:42.515Z,95254.06
2022-08-29T14:33:23.639Z,95257.84
2022-08-29T14:35:52.225Z,95243.75
2022-08-29T14:38:20.761Z,95245.06
2022-08-29T14:40:49.772Z,95245.09
2022-08-29T14:43:18.545Z,95244.72
2022-08-29T14:45:48.151Z,95243.91
2022-08-29T14:48:17.222Z,95229.09
2022-08-29T14:50:47.492Z,95234.16
2022-08-29T14:53:16.760Z,95180.34
2022-08-29T14:55:45.217Z,95143.28
2022-08-29T14:58:17.396Z,95208.06
2022-08-29T15:00:46.814Z,95108.16
2022-08-29T15:03:15.278Z,95230.97
2022-08-29T15:05:44.077Z,95212.31
2022-08-29T15:08:17.072Z,95215.44
2022-08-29T15:10:48.300Z,95212.34
2022-08-29T15:13:16.791Z,95212.69
2022-08-29T15:15:45.342Z,95221.53
2022-08-29T15:18:30.496Z,95227.19
2022-08-29T15:20:59.300Z,95221.03
2022-08-29T15:23:29.078Z,95219.13
2022-08-29T15:25:57.435Z,95219.16
2022-08-29T15:28:25.913Z,95214.13
2022-08-29T15:30:57.668Z,95211.09
2022-08-29T15:33:26.162Z,95207.25
2022-08-29T15:35:58.325Z,95189.63
2022-08-29T15:38:26.770Z,95202.88
2022-08-29T15:40:57.062Z,95230.16
2022-08-29T15:43:25.545Z,95237.94
2022-08-29T15:45:59.052Z,95209.84
2022-08-29T15:48:28.209Z,95248.44
2022-08-29T15:50:56.592Z,95249.19
2022-08-29T15:53:28.220Z,95253.84
2022-08-29T15:55:58.024Z,95254.63
2022-08-29T15:58:26.530Z,95254.38
2022-08-29T16:00:55.046Z,95260.75
2022-08-29T16:03:23.559Z,95263.09
2022-08-29T16:05:51.957Z,95266.22
2022-08-29T16:08:23.957Z,95276.19
2022-08-29T16:11:01.323Z,95268.28
2022-08-29T16:13:36.252Z,95261.50
2022-08-29T16:16:08.879Z,95272.13
2022-08-29T16:18:37.599Z,95275.41
2022-08-29T16:21:06.153Z,95283.19
2022-08-29T16:23:34.766Z,95282.28
2022-08-29T16:26:04.620Z,95278.31
2022-08-29T16:28:33.469Z,95280.72
2022-08-29T16:31:02.085Z,95285.41
2022-08-29T16:33:31.406Z,95286.34
2022-08-29T16:35:59.916Z,95282.50
2022-08-29T16:38:28.957Z,95283.78
2022-08-29T16:40:57.468Z,95266.16
2022-08-29T16:43:27.255Z,95281.44
2022-08-29T16:45:55.643Z,95275.56
2022-08-29T16:48:24.307Z,95283.69
2022-08-29T16:50:54.028Z,95273.22
2022-08-29T16:53:22.368Z,95277.78
2022-08-29T16:55:50.724Z,95277.13
2022-08-29T16:58:36.684Z,95274.66
2022-08-29T17:01:06.695Z,95280.88
2022-08-29T17:03:35.184Z,95275.38
2022-08-29T17:06:03.536Z,95280.41
2022-08-29T17:08:30.704Z,95281.09
2022-08-29T17:10:57.939Z,95250.03
2022-08-29T17:13:25.592Z,95255.50
2022-08-29T17:15:52.784Z,95282.63
2022-08-29T17:18:23.078Z,95282.91
2022-08-29T17:20:53.752Z,95281.81
2022-08-29T17:23:22.110Z,95284.41
2022-08-29T17:25:50.459Z,95284.28
2022-08-29T17:28:19.949Z,95287.09
2022-08-29T17:30:49.213Z,95293.56
2022-08-29T17:33:17.948Z,95284.38
2022-08-29T17:35:48.281Z,95288.25
2022-08-29T17:38:17.276Z,95301.91
2022-08-29T17:40:48.078Z,95289.75
2022-08-29T17:43:18.613Z,95290.88
2022-08-29T17:45:47.650Z,95287.81
2022-08-29T17:48:16.161Z,95284.53
2022-08-29T17:50:44.911Z,95295.19
2022-08-29T17:53:14.676Z,95297.75
2022-08-29T17:55:43.461Z,95312.03
2022-08-29T17:58:12.372Z,95311.72
2022-08-29T18:00:41.957Z,95309.03
2022-08-29T18:03:10.518Z,95312.09
2022-08-29T18:05:38.921Z,95307.81
2022-08-29T18:08:07.470Z,95311.31
2022-08-29T18:10:38.643Z,95322.91
2022-08-29T18:13:07.129Z,95320.88
2022-08-29T18:15:36.545Z,95321.13
2022-08-29T18:18:06.522Z,95268.50
2022-08-29T18:20:34.886Z,95320.59
2022-08-29T18:23:03.235Z,95329.78
2022-08-29T18:25:31.809Z,95323.09
2022-08-29T18:28:01.640Z,95329.16
2022-08-29T18:30:30.085Z,95336.41
2022-08-29T18:32:58.565Z,95333.75
2022-08-29T18:35:27.334Z,95337.47
2022-08-29T18:37:55.649Z,95345.47
2022-08-29T18:40:24.654Z,95334.41
2022-08-29T18:42:53.908Z,95335.06
2022-08-29T18:45:23.883Z,95338.44
2022-08-29T18:47:52.347Z,95333.22
2022-08-29T18:50:36.668Z,95333.06
2022-08-29T18:53:12.005Z,95336.31
2022-08-29T18:55:43.979Z,95345.03
2022-08-29T18:58:18.367Z,95336.00
2022-08-29T19:00:51.712Z,95337.47
2022-08-29T19:03:20.992Z,95337.47
2022-08-29T19:05:51.972Z,95289.69
2022-08-29T19:08:23.084Z,95349.72
2022-08-29T19:10:53.833Z,95352.00
2022-08-29T19:13:25.268Z,95349.28
2022-08-29T19:15:58.002Z,95347.72
2022-08-29T19:18:27.591Z,95348.75
2022-08-29T19:21:04.964Z,95347.94
2022-08-29T19:23:36.871Z,95346.41
2022-08-29T19:26:10.026Z,95351.03
2022-08-29T19:31:15.058Z,95312.25
2022-08-29T19:33:45.647Z,95360.34
2022-08-29T19:36:14.748Z,95359.56
2022-08-29T19:38:43.194Z,95362.63
2022-08-29T19:41:12.623Z,95342.94
2022-08-29T19:43:42.075Z,95373.91
2022-08-29T19:46:16.462Z,95309.56
2022-08-29T19:48:48.583Z,95376.94
2022-08-29T19:51:22.003Z,95370.44
2022-08-29T19:53:53.840Z,95379.00
2022-08-29T19:56:23.347Z,95373.84
2022-08-29T19:58:51.742Z,95379.94
2022-08-29T20:01:21.749Z,95371.09
2022-08-29T20:03:50.237Z,95371.06
2022-08-29T20:06:20.983Z,95373.63
2022-08-29T20:08:50.229Z,95377.56
2022-08-29T20:11:21.963Z,95379.72
2022-08-29T20:13:51.799Z,95383.19
2022-08-29T20:16:24.988Z,95391.28
2022-08-29T20:18:53.944Z,95380.03
2022-08-29T20:21:23.861Z,95383.78
2022-08-29T20:23:57.251Z,95383.50
2022-08-29T20:26:27.385Z,95357.88
2022-08-29T20:28:55.843Z,95378.53
2022-08-29T20:31:25.811Z,95376.19
2022-08-29T20:33:54.177Z,95377.56
2022-08-29T20:36:50.000Z,95361.13
2022-08-29T20:39:19.973Z,95383.50
2022-08-29T20:41:53.826Z,95383.78
2022-08-29T20:44:22.854Z,95377.66
2022-08-29T20:46:53.308Z,95378.38
2022-08-29T20:49:24.006Z,95379.56
2022-08-29T20:51:53.048Z,95383.59
2022-08-29T20:54:23.294Z,95388.09
2022-08-29T20:56:52.245Z,95388.00
2022-08-29T20:59:23.537Z,95376.69
2022-08-29T21:01:56.559Z,95371.81
2022-08-29T21:04:42.996Z,95378.25
2022-08-29T21:07:13.887Z,95350.84
2022-08-29T21:09:44.452Z,95373.94
2022-08-29T21:12:15.386Z,95370.66
2022-08-29T21:14:43.824Z,95307.22
2022-08-29T21:17:14.962Z,95369.34
2022-08-29T21:19:44.480Z,95388.06
2022-08-29T21:22:14.625Z,95365.63
2022-08-29T21:24:43.545Z,95376.13
2022-08-29T21:27:12.172Z,95354.06
2022-08-29T21:29:42.614Z,95368.34
2022-08-29T21:32:11.089Z,95368.34
2022-08-29T21:34:40.848Z,95309.94
2022-08-29T21:37:09.159Z,95366.03
2022-08-29T21:39:37.574Z,95355.38
2022-08-29T21:42:06.725Z,95377.97
2022-08-29T21:44:35.370Z,95364.75
2022-08-29T21:47:04.049Z,95373.03
2022-08-29T21:49:32.522Z,95369.25
2022-08-29T21:52:02.713Z,95372.59
2022-08-29T21:54:31.135Z,95375.41
2022-08-29T21:56:59.506Z,95369.69
2022-08-29T21:59:28.537Z,95383.97
2022-08-29T22:01:57.229Z,95372.69
2022-08-29T22:04:28.176Z,95374.03
2022-08-29T22:06:57.710Z,95373.34
2022-08-29T22:09:27.900Z,95366.53
2022-08-29T22:11:56.470Z,95370.78
2022-08-29T22:14:45.989Z,95365.31
2022-08-29T22:17:14.364Z,95385.72
2022-08-29T22:19:43.148Z,95388.53
2022-08-29T22:22:11.764Z,95383.22
2022-08-29T22:24:41.569Z,95381.00
2022-08-29T22:27:09.956Z,95390.16
2022-08-29T22:29:38.339Z,95395.84
2022-08-29T22:32:07.342Z,95392.25
2022-08-29T22:34:35.914Z,95387.53
2022-08-29T22:37:04.335Z,95388.72
2022-08-29T22:39:32.901Z,95393.94
2022-08-29T22:42:02.711Z,95390.56
2022-08-29T22:45:02.062Z,95387.44
2022-08-29T22:47:20.396Z,95384.38
2022-08-29T22:49:48.748Z,95387.50
2022-08-29T22:52:17.162Z,95379.84
2022-08-29T22:54:45.681Z,95381.28
2022-08-29T22:57:18.192Z,95386.16
2022-08-29T22:59:48.762Z,95369.84
2022-08-29T23:02:18.284Z,95386.47
2022-08-29T23:04:47.194Z,95383.53
2022-08-29T23:07:15.726Z,95389.63
2022-08-29T23:09:45.088Z,95383.16
2022-08-29T23:12:15.899Z,95328.19
2022-08-29T23:14:46.650Z,95373.81
2022-08-29T23:17:16.698Z,95381.78
2022-08-29T23:19:45.597Z,95373.81
2022-08-29T23:22:15.487Z,95375.81
2022-08-29T23:24:57.871Z,95313.84
2022-08-29T23:27:29.387Z,95341.53
2022-08-29T23:29:58.491Z,95365.72
2022-08-29T23:32:27.425Z,95361.34
2022-08-29T23:34:56.286Z,95362.22
2022-08-29T23:37:25.050Z,95364.50
2022-08-29T23:39:53.465Z,95360.84
2022-08-29T23:42:21.951Z,95361.41
2022-08-29T23:44:51.796Z,95364.47
2022-08-29T23:47:20.870Z,95358.63
2022-08-29T23:49:49.330Z,95360.66
2022-08-29T23:52:18.130Z,95363.09
2022-08-29T23:54:46.621Z,95355.28
2022-08-29T23:57:15.036Z,95341.53
